Hauptseite
METAR-TAF:

METAR-TAF

Flughäfen :

Eleftherios-Venizelos-Flughafen Athen

Athen, Griechenland

Breite: 37-56N, Länge: 023-56E, Höhe: 94 m

Beobachtung

Neuester Wetterbericht von vor 10 Minuten, um 18:50 UTC
Wind 3 kt aus unterschiedlichen Richtungen
Temperatur 13°C
Luftfeuchtigkeit 77%
Luftdruck 1017 hPa
Sichtweite 10 km oder mehr
Leicht bewölkt in der Höhe von 2500 ft

METAR: LGAV 071850Z VRB03KT 9999 FEW025 13/09 Q1017 NOSIG

Zeit: 21:00 (19:00 UTC)

Prognose

Neuester Wetterbericht von vor 2 Stunden und 0 Minuten, um 17:00 UTC
Gültige Prognose vom 07 um 18 UTC bis 08 um 18 UTC
Wind 10 kt aus West
Sichtweite 10 km oder mehr
Leicht bewölkt in der Höhe von 2500 ft
Durchbrochene Bewölkung in der Höhe von 7000 ft
Übergehend zu
vom 07 um 19 UTC bis 07 um 21 UTC
Wind 12 kt aus Nord

TAF: LGAV 071700Z 0718/0818 28010KT 9999 FEW025 BKN070 BECMG 0719/0721 36012KT

Wetterbeobachtungen und Prognosen von mehr als 4000 Flughäfen (METAR und TAF Bericht).

Die verfügbaren Stationen werden durch gelbe und rote Markierungen auf der Karte dargestellt.

Führen Sie die Maus auf sie, um den Namen der Station zu sehen.

Darauf klicken, um die Beobachtung von Wetterbeobachtungen und Prognosen zu sehen.

Um die Karte zu ändern : klicken Sie auf den grünen Tasten mit einem schwarzen Kreuz Zum Vergrößern, auf den grünen Button mit einem Gedankenstrich zu verkleinern, oder auf die grünen Pfeile für benachbarte Karten.


METAR-TAF: